CheckWX is a tool to help pilots better visualize weather data.  It is not intended as a substitute for an official pre-flight weather briefing.

18:48:46 UTC

KACV TAF
California Redwood Coast-Humboldt County Airport
Arcata/Eureka, California, USA
KACV 211722Z 2118/2218 09003KT P6SM SKC FM212200 31005KT P6SM SKC FM220100 12004KT P6SM SKC

Nov-21@
18:00 UTC

Nov-21 @ 18:00 UTC

Nov-21@
22:00 UTC

Nov-21 @ 22:00 UTC

KACV 211722Z 2118/2218 09003KT P6SM SKC
Wind
  • 090° at 3 KTS
Cloud Levels
  • Clear skies

Nov-21@
22:00 UTC

Nov-21 @ 22:00 UTC

Nov-22@
01:00 UTC

Nov-22 @ 01:00 UTC

FM212200 31005KT P6SM SKC

From

From Standard forecast or significant change

Wind
  • 310° at 5 KTS
Cloud Levels
  • Clear skies

Nov-22@
01:00 UTC

Nov-22 @ 01:00 UTC

Nov-22@
18:00 UTC

Nov-22 @ 18:00 UTC

FM220100 12004KT P6SM SKC

From

From Standard forecast or significant change

Wind
  • 120° at 4 KTS
Cloud Levels
  • Clear skies